Welwyn, United Kingdom
Current Conditions -  °F | °C
As of 12:20 PM on Monday 22 Dec 2014 (Local Time) from EGGW Reporting Station
Overcast Overcast  
Wind Chill: 12°   Ceiling: 1600
Heat Index: 12°   Visibility: 6mi
Dew Point:   Wind: 20mph
Humidity: 82%   Direction: 240°WSW
Pressure: 30"   Gusts: 33mph
Location:  51.81°N, 0.18°W
Report Text: EGGW 221220Z 24017G29KT 9999 OVC016 12/09 Q1016
Loading
Personal Weather Stations






























Interactive Weather Map New forecast layout! Learn more

10-Day Weather Forecast

Advertisements
Track Severe Weather on mobile